createdAt,value
2022-11-17T00:01:55.144Z,54.20
2022-11-17T00:04:29.988Z,54.27
2022-11-17T00:07:03.637Z,54.45
2022-11-17T00:09:36.985Z,54.51
2022-11-17T00:12:32.604Z,54.48
2022-11-17T00:15:03.179Z,54.43
2022-11-17T00:17:36.653Z,54.49
2022-11-17T00:20:30.610Z,54.38
2022-11-17T00:23:05.443Z,54.42
2022-11-17T00:25:38.731Z,54.53
2022-11-17T00:28:12.093Z,55.02
2022-11-17T00:31:03.544Z,55.02
2022-11-17T00:33:54.744Z,55.03
2022-11-17T00:36:29.215Z,54.93
2022-11-17T00:39:02.785Z,54.63
2022-11-17T00:41:36.838Z,54.65
2022-11-17T00:44:11.117Z,54.64
2022-11-17T00:46:45.680Z,54.67
2022-11-17T00:49:21.638Z,54.77
2022-11-17T00:51:56.145Z,54.88
2022-11-17T00:54:29.526Z,54.92
2022-11-17T00:57:03.096Z,55.12
2022-11-17T00:59:36.700Z,55.32
2022-11-17T01:02:10.206Z,55.39
2022-11-17T01:04:43.697Z,55.38
2022-11-17T01:07:17.394Z,55.60
2022-11-17T01:09:50.987Z,55.60
2022-11-17T01:12:24.661Z,55.64
2022-11-17T01:14:58.247Z,55.76
2022-11-17T01:17:31.756Z,55.74
2022-11-17T01:20:05.961Z,55.63
2022-11-17T01:22:39.602Z,55.45
2022-11-17T01:25:13.198Z,55.44
2022-11-17T01:27:46.713Z,55.35
2022-11-17T01:30:20.679Z,55.30
2022-11-17T01:32:54.185Z,55.31
2022-11-17T01:35:27.672Z,55.37
2022-11-17T01:38:01.199Z,55.41
2022-11-17T01:40:34.710Z,55.45
2022-11-17T01:43:12.613Z,55.62
2022-11-17T01:45:45.095Z,55.54
2022-11-17T01:48:18.308Z,54.76
2022-11-17T01:50:51.860Z,55.20
2022-11-17T01:53:28.628Z,55.23
2022-11-17T01:56:05.215Z,55.33
2022-11-17T01:58:41.748Z,55.57
2022-11-17T02:01:15.744Z,55.74
2022-11-17T02:03:52.464Z,56.26
2022-11-17T02:06:29.214Z,56.33
2022-11-17T02:09:04.476Z,56.40
2022-11-17T02:11:38.007Z,56.40
2022-11-17T02:14:11.970Z,56.27
2022-11-17T02:16:46.176Z,56.30
2022-11-17T02:19:21.288Z,56.37
2022-11-17T02:22:11.044Z,56.33
2022-11-17T02:25:22.994Z,56.21
2022-11-17T02:28:01.354Z,56.10
2022-11-17T02:30:37.982Z,55.97
2022-11-17T02:33:14.744Z,56.06
2022-11-17T02:35:51.070Z,56.17
2022-11-17T02:38:31.006Z,56.13
2022-11-17T02:41:08.898Z,56.17
2022-11-17T02:44:00.286Z,56.16
2022-11-17T02:46:38.177Z,55.14
2022-11-17T02:49:16.355Z,55.57
2022-11-17T02:51:52.644Z,55.81
2022-11-17T02:54:28.489Z,56.06
2022-11-17T02:57:02.026Z,56.19
2022-11-17T02:59:38.920Z,56.26
2022-11-17T03:02:32.704Z,56.47
2022-11-17T03:05:13.551Z,56.69
2022-11-17T03:08:06.049Z,56.74
2022-11-17T03:10:44.759Z,57.01
2022-11-17T03:13:21.892Z,57.05
2022-11-17T03:15:58.425Z,56.99
2022-11-17T03:18:34.621Z,56.81
2022-11-17T03:21:12.597Z,56.71
2022-11-17T03:23:48.759Z,56.66
2022-11-17T03:26:24.889Z,56.59
2022-11-17T03:29:01.420Z,56.62
2022-11-17T03:31:36.493Z,56.65
2022-11-17T03:34:12.815Z,56.60
2022-11-17T03:36:49.641Z,56.59
2022-11-17T03:39:26.292Z,56.63
2022-11-17T03:42:02.756Z,56.69
2022-11-17T03:44:38.296Z,56.75
2022-11-17T03:47:13.637Z,56.82
2022-11-17T03:49:50.792Z,56.98
2022-11-17T03:52:25.575Z,57.16
2022-11-17T03:55:00.802Z,57.39
2022-11-17T03:57:37.659Z,57.70
2022-11-17T04:00:15.047Z,57.86
2022-11-17T04:02:50.341Z,57.98
2022-11-17T04:05:24.344Z,58.05
2022-11-17T04:08:00.230Z,58.23
2022-11-17T04:10:40.421Z,58.14
2022-11-17T04:15:59.267Z,57.59
2022-11-17T04:18:33.409Z,57.63
2022-11-17T04:21:07.758Z,57.89
2022-11-17T04:23:41.097Z,57.98
2022-11-17T04:26:32.082Z,57.98
2022-11-17T04:29:07.154Z,58.09
2022-11-17T04:31:40.743Z,58.06
2022-11-17T04:34:14.275Z,58.06
2022-11-17T04:36:48.404Z,58.08
2022-11-17T04:39:21.833Z,58.10
2022-11-17T04:41:56.805Z,58.03
2022-11-17T04:44:31.791Z,58.03
2022-11-17T04:47:07.065Z,58.01
2022-11-17T04:49:40.300Z,57.94
2022-11-17T04:52:13.780Z,57.97
2022-11-17T04:54:47.105Z,57.94
2022-11-17T04:57:20.613Z,57.98
2022-11-17T04:59:54.386Z,57.98
2022-11-17T05:02:27.865Z,58.01
2022-11-17T05:05:01.505Z,57.92
2022-11-17T05:07:35.166Z,57.92
2022-11-17T05:10:12.280Z,58.09
2022-11-17T05:13:04.053Z,58.40
2022-11-17T05:15:59.458Z,58.40
2022-11-17T05:18:33.096Z,58.30
2022-11-17T05:21:07.892Z,58.15
2022-11-17T05:23:56.078Z,58.26
2022-11-17T05:26:31.584Z,58.46
2022-11-17T05:29:06.861Z,58.77
2022-11-17T05:31:40.279Z,58.99
2022-11-17T05:34:15.354Z,59.26
2022-11-17T05:36:48.976Z,59.51
2022-11-17T05:39:22.388Z,59.75
2022-11-17T05:41:55.834Z,59.90
2022-11-17T05:44:29.187Z,60.05
2022-11-17T05:47:02.990Z,60.29
2022-11-17T05:49:36.479Z,60.44
2022-11-17T05:52:10.173Z,60.60
2022-11-17T05:54:43.548Z,60.64
2022-11-17T05:57:20.100Z,60.48
2022-11-17T05:59:56.346Z,60.36
2022-11-17T06:02:32.724Z,60.18
2022-11-17T06:05:07.422Z,60.09
2022-11-17T06:07:41.415Z,59.98
2022-11-17T06:10:15.343Z,60.04
2022-11-17T06:12:48.926Z,59.92
2022-11-17T06:15:22.574Z,59.89
2022-11-17T06:17:58.849Z,59.81
2022-11-17T06:20:35.956Z,59.77
2022-11-17T06:23:12.072Z,59.78
2022-11-17T06:25:46.110Z,59.59
2022-11-17T06:28:22.203Z,59.59
2022-11-17T06:30:55.813Z,59.60
2022-11-17T06:33:31.185Z,59.58
2022-11-17T06:36:07.443Z,59.58
2022-11-17T06:38:40.852Z,59.54
2022-11-17T06:41:14.244Z,59.52
2022-11-17T06:43:47.708Z,59.47
2022-11-17T06:46:21.651Z,59.53
2022-11-17T06:48:56.645Z,59.85
2022-11-17T06:51:30.003Z,60.06
2022-11-17T06:54:05.467Z,60.25
2022-11-17T06:56:38.779Z,60.48
2022-11-17T06:59:12.469Z,60.85
2022-11-17T07:01:45.835Z,61.28
2022-11-17T07:04:19.485Z,61.54
2022-11-17T07:06:52.894Z,61.87
2022-11-17T07:09:26.430Z,62.18
2022-11-17T07:12:00.305Z,62.45
2022-11-17T07:14:33.990Z,62.48
2022-11-17T07:17:08.088Z,62.58
2022-11-17T07:19:41.597Z,62.49
2022-11-17T07:22:14.975Z,62.25
2022-11-17T07:24:48.483Z,62.16
2022-11-17T07:27:21.962Z,62.50
2022-11-17T07:29:55.370Z,62.66
2022-11-17T07:32:29.059Z,62.74
2022-11-17T07:35:04.642Z,62.73
2022-11-17T07:37:38.124Z,62.95
2022-11-17T07:40:13.612Z,63.09
2022-11-17T07:42:51.885Z,63.43
2022-11-17T07:45:31.422Z,63.84
2022-11-17T07:48:02.228Z,63.64
2022-11-17T07:50:37.188Z,64.16
2022-11-17T07:53:10.740Z,64.30
2022-11-17T07:55:44.055Z,64.32
2022-11-17T07:58:17.495Z,64.25
2022-11-17T08:00:50.940Z,63.99
2022-11-17T08:03:24.815Z,63.63
2022-11-17T08:05:58.658Z,63.25
2022-11-17T08:08:32.259Z,63.04
2022-11-17T08:11:06.946Z,62.82
2022-11-17T08:13:41.567Z,62.85
2022-11-17T08:16:15.031Z,62.67
2022-11-17T08:18:52.031Z,62.47
2022-11-17T08:21:23.597Z,62.22
2022-11-17T08:23:57.132Z,61.85
2022-11-17T08:26:30.556Z,61.57
2022-11-17T08:29:03.642Z,61.53
2022-11-17T08:31:37.318Z,61.43
2022-11-17T08:34:11.108Z,61.56
2022-11-17T08:36:44.608Z,61.63
2022-11-17T08:39:18.009Z,61.62
2022-11-17T08:41:52.496Z,61.44
2022-11-17T08:44:25.856Z,61.25
2022-11-17T08:46:59.438Z,61.10
2022-11-17T08:49:32.892Z,60.90
2022-11-17T08:52:06.817Z,60.75
2022-11-17T08:54:40.367Z,60.61
2022-11-17T08:57:13.940Z,60.54
2022-11-17T08:59:47.317Z,60.47
2022-11-17T09:02:20.705Z,60.26
2022-11-17T09:04:54.037Z,60.15
2022-11-17T09:07:32.007Z,60.07
2022-11-17T09:10:02.939Z,59.94
2022-11-17T09:12:36.179Z,59.91
2022-11-17T09:15:12.428Z,59.72
2022-11-17T09:17:47.540Z,59.42
2022-11-17T09:20:21.731Z,59.14
2022-11-17T09:22:55.562Z,59.05
2022-11-17T09:25:29.141Z,58.87
2022-11-17T09:28:04.755Z,58.79
2022-11-17T09:30:39.481Z,58.67
2022-11-17T09:33:13.045Z,58.41
2022-11-17T09:35:46.749Z,58.44
2022-11-17T09:38:20.292Z,58.34
2022-11-17T09:40:56.783Z,57.87
2022-11-17T09:43:31.768Z,57.77
2022-11-17T09:46:08.429Z,57.31
2022-11-17T09:48:46.735Z,57.62
2022-11-17T09:51:22.860Z,57.99
2022-11-17T09:53:59.485Z,58.09
2022-11-17T09:56:33.503Z,58.09
2022-11-17T09:59:10.466Z,58.08
2022-11-17T10:01:44.093Z,58.26
2022-11-17T10:04:18.792Z,58.41
2022-11-17T10:06:52.860Z,58.44
2022-11-17T10:09:29.492Z,58.43
2022-11-17T10:12:08.903Z,58.38
2022-11-17T10:14:42.826Z,58.28
2022-11-17T10:17:16.696Z,58.14
2022-11-17T10:19:50.270Z,58.05
2022-11-17T10:22:29.181Z,57.69
2022-11-17T10:25:03.096Z,57.48
2022-11-17T10:27:37.066Z,57.26
2022-11-17T10:30:17.991Z,57.23
2022-11-17T10:32:53.433Z,57.16
2022-11-17T10:35:28.686Z,57.05
2022-11-17T10:38:04.086Z,56.97
2022-11-17T10:40:48.856Z,56.91
2022-11-17T10:43:26.612Z,56.88
2022-11-17T10:46:02.960Z,56.83
2022-11-17T10:48:37.403Z,56.83
2022-11-17T10:51:24.545Z,56.81
2022-11-17T10:54:06.625Z,56.83
2022-11-17T10:56:45.531Z,56.74
2022-11-17T10:59:21.120Z,56.67
2022-11-17T11:01:55.388Z,56.74
2022-11-17T11:04:34.489Z,56.80
2022-11-17T11:07:14.414Z,56.76
2022-11-17T11:09:52.091Z,56.73
2022-11-17T11:12:25.955Z,56.74
2022-11-17T11:15:01.569Z,56.70
2022-11-17T11:17:35.343Z,56.62
2022-11-17T11:20:15.767Z,56.71
2022-11-17T11:22:52.868Z,56.81
2022-11-17T11:25:33.672Z,56.95
2022-11-17T11:28:18.617Z,56.92
2022-11-17T11:30:57.305Z,56.86
2022-11-17T11:33:36.359Z,56.95
2022-11-17T11:36:25.891Z,56.89
2022-11-17T11:39:03.502Z,56.98
2022-11-17T11:42:08.127Z,56.93
2022-11-17T11:44:49.728Z,56.92
2022-11-17T11:47:30.762Z,56.92
2022-11-17T11:50:07.276Z,56.93
2022-11-17T11:52:43.754Z,57.04
2022-11-17T11:58:06.266Z,57.00
2022-11-17T12:00:41.387Z,58.66
2022-11-17T12:03:22.408Z,57.91
2022-11-17T12:06:09.549Z,57.56
2022-11-17T12:08:45.735Z,57.25
2022-11-17T12:11:37.357Z,56.89
2022-11-17T12:14:14.241Z,56.90
2022-11-17T12:16:49.512Z,56.91
2022-11-17T12:20:09.281Z,57.05
2022-11-17T12:23:02.927Z,57.18
2022-11-17T12:25:38.212Z,57.21
2022-11-17T12:31:38.507Z,57.37
2022-11-17T12:34:32.610Z,57.31
2022-11-17T12:37:25.449Z,57.46
2022-11-17T12:40:03.942Z,57.39
2022-11-17T12:42:38.196Z,57.46
2022-11-17T12:45:13.923Z,57.57
2022-11-17T12:48:05.228Z,57.58
2022-11-17T12:50:32.300Z,57.58
2022-11-17T12:53:32.245Z,57.62
2022-11-17T12:56:51.541Z,57.62
2022-11-17T13:02:44.510Z,57.62
2022-11-17T13:05:20.986Z,57.56
2022-11-17T13:08:10.487Z,57.61
2022-11-17T13:10:44.062Z,57.69
2022-11-17T13:13:21.173Z,57.65
2022-11-17T13:15:56.691Z,57.62
2022-11-17T13:18:33.727Z,57.50
2022-11-17T13:21:17.400Z,57.36
2022-11-17T13:23:50.954Z,57.31
2022-11-17T13:26:26.902Z,57.33
2022-11-17T13:29:07.616Z,57.43
2022-11-17T13:31:40.993Z,57.38
2022-11-17T13:34:21.454Z,57.44
2022-11-17T13:36:59.357Z,57.46
2022-11-17T13:39:32.571Z,57.45
2022-11-17T13:42:06.365Z,57.44
2022-11-17T13:44:40.221Z,57.42
2022-11-17T13:47:24.576Z,57.39
2022-11-17T13:49:59.416Z,57.40
2022-11-17T13:52:45.379Z,57.57
2022-11-17T13:58:01.096Z,57.74
2022-11-17T14:00:35.193Z,57.75
2022-11-17T14:03:22.314Z,57.87
2022-11-17T14:05:59.028Z,57.95
2022-11-17T14:08:34.435Z,58.00
2022-11-17T14:11:18.612Z,57.96
2022-11-17T14:13:54.220Z,57.99
2022-11-17T14:16:30.332Z,58.04
2022-11-17T14:19:05.733Z,57.97
2022-11-17T14:21:40.649Z,58.01
2022-11-17T14:24:18.431Z,58.06
2022-11-17T14:26:51.945Z,58.14
2022-11-17T14:29:26.174Z,58.13
2022-11-17T14:32:00.191Z,58.16
2022-11-17T14:34:33.925Z,58.18
2022-11-17T14:37:10.364Z,58.34
2022-11-17T14:39:42.460Z,58.41
2022-11-17T14:42:15.966Z,58.49
2022-11-17T14:44:49.370Z,58.48
2022-11-17T14:47:22.920Z,58.62
2022-11-17T14:49:56.962Z,58.68
2022-11-17T14:52:30.454Z,58.68
2022-11-17T14:55:03.866Z,58.58
2022-11-17T14:57:37.642Z,58.55
2022-11-17T15:00:18.829Z,58.57
2022-11-17T15:02:51.444Z,58.61
2022-11-17T15:05:24.876Z,58.59
2022-11-17T15:07:59.781Z,58.52
2022-11-17T15:10:33.116Z,58.69
2022-11-17T15:13:06.609Z,58.63
2022-11-17T15:15:40.208Z,58.67
2022-11-17T15:18:14.434Z,58.59
2022-11-17T15:20:47.784Z,58.61
2022-11-17T15:23:21.268Z,58.58
2022-11-17T15:25:54.606Z,58.43
2022-11-17T15:28:30.481Z,58.36
2022-11-17T15:31:10.208Z,58.33
2022-11-17T15:33:44.440Z,58.33
2022-11-17T15:36:20.066Z,58.39
2022-11-17T15:38:54.058Z,58.53
2022-11-17T15:41:32.779Z,58.52
2022-11-17T15:44:04.856Z,58.57
2022-11-17T15:46:41.614Z,58.55
2022-11-17T15:49:14.166Z,58.55
2022-11-17T15:51:48.271Z,58.63
2022-11-17T15:54:23.467Z,58.81
2022-11-17T15:56:57.062Z,58.81
2022-11-17T15:59:30.572Z,58.69
2022-11-17T16:02:12.354Z,58.48
2022-11-17T16:04:46.377Z,58.44
2022-11-17T16:07:19.926Z,58.63
2022-11-17T16:09:53.895Z,58.73
2022-11-17T16:12:27.466Z,58.69
2022-11-17T16:15:01.102Z,58.49
2022-11-17T16:17:34.897Z,58.48
2022-11-17T16:20:11.566Z,58.52
2022-11-17T16:22:45.189Z,58.39
2022-11-17T16:25:18.679Z,58.37
2022-11-17T16:27:52.239Z,58.36
2022-11-17T16:30:31.391Z,58.22
2022-11-17T16:33:02.754Z,58.13
2022-11-17T16:35:36.284Z,57.98
2022-11-17T16:38:11.456Z,57.93
2022-11-17T16:40:45.530Z,57.92
2022-11-17T16:43:18.873Z,57.86
2022-11-17T16:45:52.234Z,57.83
2022-11-17T16:48:25.702Z,57.92
2022-11-17T16:50:59.164Z,58.00
2022-11-17T16:53:32.739Z,57.99
2022-11-17T16:56:08.180Z,57.95
2022-11-17T16:58:41.891Z,57.97
2022-11-17T17:01:17.771Z,57.99
2022-11-17T17:03:51.482Z,58.08
2022-11-17T17:06:25.309Z,58.18
2022-11-17T17:08:59.829Z,58.16
2022-11-17T17:11:35.407Z,58.17
2022-11-17T17:14:10.748Z,58.18
2022-11-17T17:16:45.122Z,58.17
2022-11-17T17:19:19.277Z,58.24
2022-11-17T17:21:52.987Z,58.29
2022-11-17T17:24:26.454Z,58.50
2022-11-17T17:26:59.966Z,58.55
2022-11-17T17:29:33.559Z,58.61
2022-11-17T17:32:07.457Z,58.69
2022-11-17T17:34:41.083Z,58.66
2022-11-17T17:37:14.187Z,58.64
2022-11-17T17:39:47.782Z,58.89
2022-11-17T17:42:21.523Z,59.02
2022-11-17T17:44:54.944Z,59.14
2022-11-17T17:47:28.151Z,59.24
2022-11-17T17:50:02.407Z,59.18
2022-11-17T17:52:36.122Z,59.26
2022-11-17T17:55:11.702Z,59.32
2022-11-17T17:57:45.264Z,59.40
2022-11-17T18:00:20.953Z,59.46
2022-11-17T18:02:54.494Z,59.47
2022-11-17T18:05:28.448Z,59.82
2022-11-17T18:08:02.248Z,59.75
2022-11-17T18:10:37.232Z,59.73
2022-11-17T18:13:11.122Z,59.69
2022-11-17T18:15:44.762Z,59.72
2022-11-17T18:18:18.412Z,59.58
2022-11-17T18:20:57.773Z,59.54
2022-11-17T18:23:34.029Z,59.58
2022-11-17T18:26:16.511Z,59.61
2022-11-17T18:28:54.752Z,59.53
2022-11-17T18:31:30.197Z,59.42
2022-11-17T18:34:05.567Z,59.48
2022-11-17T18:36:39.066Z,59.53
2022-11-17T18:39:12.661Z,59.43
2022-11-17T18:41:47.174Z,59.51
2022-11-17T18:44:21.051Z,59.49
2022-11-17T18:46:59.635Z,59.46
2022-11-17T18:49:30.063Z,59.50
2022-11-17T18:52:03.434Z,59.57
2022-11-17T18:54:37.774Z,59.59
2022-11-17T18:57:11.332Z,59.58
2022-11-17T18:59:44.887Z,59.62
2022-11-17T19:02:18.520Z,59.57
2022-11-17T19:04:52.231Z,59.56
2022-11-17T19:07:26.036Z,59.52
2022-11-17T19:09:59.798Z,59.57
2022-11-17T19:12:34.327Z,59.57
2022-11-17T19:15:09.282Z,59.82
2022-11-17T19:17:42.997Z,59.92
2022-11-17T19:20:17.284Z,59.89
2022-11-17T19:22:51.022Z,59.85
2022-11-17T19:25:24.341Z,59.76
2022-11-17T19:27:58.830Z,59.76
2022-11-17T19:30:32.326Z,59.67
2022-11-17T19:33:05.838Z,59.64
2022-11-17T19:35:42.199Z,59.59
2022-11-17T19:38:15.667Z,59.65
2022-11-17T19:40:49.263Z,59.57
2022-11-17T19:43:24.073Z,59.57
2022-11-17T19:46:01.603Z,59.72
2022-11-17T19:48:35.533Z,59.62
2022-11-17T19:51:17.397Z,59.57
2022-11-17T19:53:52.282Z,59.64
2022-11-17T19:56:27.230Z,59.64
2022-11-17T19:59:01.270Z,59.63
2022-11-17T20:01:35.442Z,59.60
2022-11-17T20:04:09.448Z,59.55
2022-11-17T20:06:43.250Z,59.63
2022-11-17T20:09:17.032Z,59.63
2022-11-17T20:11:51.759Z,59.54
2022-11-17T20:14:25.247Z,59.62
2022-11-17T20:16:58.696Z,59.67
2022-11-17T20:19:32.040Z,59.73
2022-11-17T20:22:05.633Z,59.82
2022-11-17T20:24:39.019Z,59.96
2022-11-17T20:27:12.413Z,59.95
2022-11-17T20:29:46.014Z,59.95
2022-11-17T20:32:19.604Z,59.86
2022-11-17T20:34:53.234Z,59.86
2022-11-17T20:37:26.823Z,59.87
2022-11-17T20:40:01.935Z,59.89
2022-11-17T20:42:35.582Z,59.92
2022-11-17T20:45:10.989Z,60.31
2022-11-17T20:47:44.420Z,60.47
2022-11-17T20:50:18.629Z,60.48
2022-11-17T20:52:52.212Z,60.54
2022-11-17T20:55:25.816Z,60.56
2022-11-17T20:57:59.328Z,60.46
2022-11-17T21:00:32.790Z,60.42
2022-11-17T21:03:06.513Z,60.42
2022-11-17T21:05:40.098Z,60.45
2022-11-17T21:08:13.450Z,60.47
2022-11-17T21:10:46.844Z,60.34
2022-11-17T21:13:20.493Z,60.36
2022-11-17T21:16:09.738Z,60.30
2022-11-17T21:18:47.698Z,60.25
2022-11-17T21:21:21.533Z,60.28
2022-11-17T21:23:56.742Z,60.25
2022-11-17T21:26:30.553Z,60.18
2022-11-17T21:29:06.972Z,60.18
2022-11-17T21:31:40.092Z,60.06
2022-11-17T21:34:17.630Z,60.04
2022-11-17T21:36:51.101Z,60.03
2022-11-17T21:39:24.723Z,59.95
2022-11-17T21:41:58.403Z,59.92
2022-11-17T21:44:33.275Z,59.95
2022-11-17T21:47:09.103Z,60.02
2022-11-17T21:49:42.656Z,60.21
2022-11-17T21:52:16.251Z,60.18
2022-11-17T21:54:50.021Z,60.28
2022-11-17T21:57:23.656Z,60.31
2022-11-17T21:59:57.195Z,60.22
2022-11-17T22:02:30.734Z,60.18
2022-11-17T22:05:04.259Z,60.26
2022-11-17T22:07:37.899Z,60.29
2022-11-17T22:10:12.521Z,60.27
2022-11-17T22:12:45.997Z,60.45
2022-11-17T22:15:19.843Z,60.50
2022-11-17T22:17:53.424Z,60.61
2022-11-17T22:20:27.286Z,60.70
2022-11-17T22:23:00.839Z,60.83
2022-11-17T22:25:49.840Z,60.77
2022-11-17T22:28:09.646Z,60.74
2022-11-17T22:30:43.068Z,60.71
2022-11-17T22:33:16.888Z,60.63
2022-11-17T22:35:51.105Z,60.80
2022-11-17T22:38:26.374Z,60.80
2022-11-17T22:41:02.987Z,60.84
2022-11-17T22:43:37.024Z,61.02
2022-11-17T22:46:12.980Z,60.92
2022-11-17T22:48:46.598Z,60.79
2022-11-17T22:51:39.566Z,60.89
2022-11-17T22:54:13.361Z,61.03
2022-11-17T22:56:47.141Z,60.81
2022-11-17T22:59:21.327Z,60.78
2022-11-17T23:01:55.514Z,60.68
2022-11-17T23:04:28.990Z,60.76
2022-11-17T23:07:02.760Z,60.82
2022-11-17T23:09:36.343Z,60.72
2022-11-17T23:12:10.341Z,60.87
2022-11-17T23:14:43.693Z,61.07
2022-11-17T23:17:17.641Z,61.03
2022-11-17T23:19:51.682Z,61.06
2022-11-17T23:22:25.256Z,60.99
2022-11-17T23:24:58.976Z,60.81
2022-11-17T23:27:34.210Z,60.75
2022-11-17T23:30:09.832Z,60.75
2022-11-17T23:32:43.662Z,60.83
2022-11-17T23:35:17.289Z,60.73
2022-11-17T23:37:50.866Z,60.64
2022-11-17T23:40:25.026Z,60.62
2022-11-17T23:42:58.699Z,60.69
2022-11-17T23:45:32.192Z,60.73
2022-11-17T23:48:05.900Z,60.71
2022-11-17T23:50:40.684Z,60.69
2022-11-17T23:53:14.320Z,60.55
2022-11-17T23:55:56.241Z,60.49
2022-11-17T23:58:30.099Z,60.62
